Richmond Hill, North Carolina
Current Conditions -  °F | °C
As of 4:15 AM on Wednesday 22 Oct 2014 (Local Time) from KMWK Reporting Station
Broken Clouds Broken Clouds  
Wind Chill: 51°   Ceiling: 3500
Heat Index: 51°   Visibility: 10mi
Dew Point: 40°   Wind: 0mph
Humidity: 67%   Direction: NA
Pressure: 30.01"   Gusts: NA
Location:  36.2374°N, 80.6343°W
Report Text: KMWK 220815Z AUTO 00000KT 10SM BKN035 BKN041 11/05 A3001 RMK AO2 T01050046
Loading
Personal Weather Stations






























Interactive Weather Map
Tropical Storm Tracking
New forecast layout! Learn more

10-Day Weather Forecast

Advertisements
Track Severe Weather on mobile